Time;durP1;ratioP1;P1;durP2;ratioP2;P2;SDS_P1;SDS_P2;PMS_P1;PMS_P2;Temp;Humidity;BMP_temperature;BMP_pressure;BME280_temperature;BME280_humidity;BME280_pressure;Samples;Min_cycle;Max_cycle;Signal;HPM_P1;HPM_P2
2021/03/13 00:01:23;;;;;;;10.48;7.38;;;;;;;22.71;35.09;94804.34;5030386;28;20036;-74
2021/03/13 00:03:48;;;;;;;10.13;7.38;;;;;;;22.69;35.09;94813.03;5030150;28;20021;-74
2021/03/13 00:06:14;;;;;;;10.63;7.20;;;;;;;22.71;35.19;94820.69;5030021;28;20021;-73
2021/03/13 00:08:39;;;;;;;10.23;7.15;;;;;;;22.68;35.09;94829.88;5030196;28;20021;-75
2021/03/13 00:11:06;;;;;;;10.30;7.07;;;;;;;22.65;35.12;94818.00;5029696;28;20046;-75
2021/03/13 00:13:31;;;;;;;8.90;6.38;;;;;;;22.49;34.82;94796.38;5029908;28;20026;-75
2021/03/13 00:15:57;;;;;;;9.45;7.15;;;;;;;22.42;34.81;94794.25;5028447;28;20106;-75
2021/03/13 00:18:22;;;;;;;9.95;7.28;;;;;;;22.49;34.99;94799.09;5030272;28;20029;-75
2021/03/13 00:20:48;;;;;;;9.57;7.03;;;;;;;22.61;35.14;94797.75;5028410;28;20364;-75
2021/03/13 00:23:13;;;;;;;10.65;7.43;;;;;;;22.58;35.07;94801.50;5028807;28;20079;-74
2021/03/13 00:25:39;;;;;;;9.85;6.65;;;;;;;22.56;35.23;94798.56;5049079;28;20021;-75
2021/03/13 00:28:05;;;;;;;11.57;7.40;;;;;;;22.55;35.12;94807.97;5065206;28;20497;-75
2021/03/13 00:30:32;;;;;;;10.68;7.05;;;;;;;22.54;35.25;94801.78;5049044;28;20421;-74
2021/03/13 00:33:02;;;;;;;10.27;7.30;;;;;;;22.53;35.05;94799.56;5049599;28;20084;-74
2021/03/13 00:35:28;;;;;;;9.82;7.20;;;;;;;22.50;35.26;94789.69;5059417;28;20032;-74
2021/03/13 00:37:54;;;;;;;10.88;8.02;;;;;;;22.37;35.24;94775.97;5061230;28;20423;-74
2021/03/13 00:40:20;;;;;;;9.23;6.85;;;;;;;22.49;35.25;94804.53;5051498;28;20475;-74
2021/03/13 00:42:46;;;;;;;10.10;7.18;;;;;;;22.46;35.26;94795.41;5048930;28;20032;-74
2021/03/13 00:45:13;;;;;;;9.93;7.28;;;;;;;22.44;35.22;94791.72;5031402;28;20486;-74
2021/03/13 00:47:38;;;;;;;10.48;7.30;;;;;;;22.42;35.28;94789.53;5029333;28;20509;-74
2021/03/13 00:50:04;;;;;;;11.27;7.78;;;;;;;22.43;35.17;94790.25;5029512;28;20026;-75
2021/03/13 00:52:30;;;;;;;10.30;6.72;;;;;;;22.41;35.09;94792.75;5029631;28;20112;-75
2021/03/13 00:54:56;;;;;;;10.05;7.60;;;;;;;22.41;35.31;94790.03;5044321;28;20497;-75
2021/03/13 00:57:21;;;;;;;10.95;7.60;;;;;;;22.41;35.17;94787.31;5028776;28;20029;-74
2021/03/13 00:59:47;;;;;;;11.43;6.80;;;;;;;22.37;35.23;94792.28;5028047;28;20025;-74
2021/03/13 01:02:12;;;;;;;11.32;7.40;;;;;;;22.35;35.35;94783.91;5029053;28;20037;-73
2021/03/13 01:04:37;;;;;;;11.25;7.72;;;;;;;22.35;35.30;94783.91;5028199;28;20030;-74
2021/03/13 01:07:03;;;;;;;10.82;7.70;;;;;;;22.32;35.33;94774.03;5038019;28;20072;-75
2021/03/13 01:09:28;;;;;;;12.68;8.15;;;;;;;22.31;35.27;94775.28;5049044;28;20025;-74
2021/03/13 01:11:55;;;;;;;12.20;8.27;;;;;;;22.32;35.25;94767.88;5049093;28;20045;-75
2021/03/13 01:14:21;;;;;;;11.48;7.78;;;;;;;22.29;35.38;94769.59;5048843;28;20036;-73
2021/03/13 01:16:46;;;;;;;10.57;8.05;;;;;;;22.29;35.38;94763.44;5042168;28;20029;-74
2021/03/13 01:19:11;;;;;;;10.90;7.03;;;;;;;22.28;35.36;94751.81;5028835;28;20464;-75
2021/03/13 01:21:37;;;;;;;11.73;7.53;;;;;;;22.24;35.62;94754.06;5029269;28;20044;-73
2021/03/13 01:24:02;;;;;;;10.25;7.07;;;;;;;22.26;35.41;94748.84;5028944;28;20021;-73
2021/03/13 01:26:28;;;;;;;10.25;7.20;;;;;;;22.25;35.48;94752.81;5029271;28;20060;-74
2021/03/13 01:28:53;;;;;;;10.23;6.82;;;;;;;22.07;35.39;94734.41;5029204;28;20513;-74
2021/03/13 01:31:19;;;;;;;10.60;7.50;;;;;;;22.22;35.37;94764.72;5028203;28;20025;-74
2021/03/13 01:33:44;;;;;;;11.48;7.57;;;;;;;22.20;35.40;94764.47;5028999;28;20022;-74
2021/03/13 01:36:10;;;;;;;10.77;7.78;;;;;;;22.22;35.36;94775.59;5028749;28;20021;-73
2021/03/13 01:38:36;;;;;;;11.00;7.93;;;;;;;22.21;35.41;94760.53;5028866;28;20025;-74
2021/03/13 01:41:01;;;;;;;10.77;7.07;;;;;;;22.21;35.41;94757.06;5027813;28;20127;-74
2021/03/13 01:43:27;;;;;;;11.52;8.27;;;;;;;22.19;35.31;94765.69;5043486;28;20025;-75
2021/03/13 01:45:52;;;;;;;10.70;7.72;;;;;;;22.19;35.61;94759.53;5028948;28;20041;-73
2021/03/13 01:48:18;;;;;;;10.90;7.82;;;;;;;22.18;35.53;94769.69;5029392;28;20022;-73
2021/03/13 01:50:43;;;;;;;11.35;8.02;;;;;;;22.13;35.40;94759.56;5037676;28;20482;-73
2021/03/13 01:53:09;;;;;;;11.65;7.85;;;;;;;22.15;35.41;94754.38;5048898;28;20059;-74
2021/03/13 01:55:34;;;;;;;10.15;7.30;;;;;;;22.14;35.44;94755.59;5059467;28;20032;-73
2021/03/13 01:58:00;;;;;;;12.43;8.30;;;;;;;22.14;35.54;94742.00;5052618;28;20509;-73
2021/03/13 02:00:26;;;;;;;13.18;9.00;;;;;;;22.10;35.40;94738.81;5048826;28;20768;-73
2021/03/13 02:02:51;;;;;;;11.55;8.00;;;;;;;22.13;35.41;94740.53;5053995;28;20081;-73
2021/03/13 02:05:27;;;;;;;11.65;7.85;;;;;;;22.10;35.61;94736.09;5049129;28;20025;-73
2021/03/13 02:08:26;;;;;;;10.93;7.75;;;;;;;22.10;35.51;94736.09;5034232;28;20085;-74
2021/03/13 02:11:10;;;;;;;11.77;7.85;;;;;;;22.11;35.58;94737.59;5028979;28;20141;-75
2021/03/13 02:14:09;;;;;;;10.20;7.65;;;;;;;22.09;35.55;94729.22;5029697;28;20083;-74
2021/03/13 02:17:13;;;;;;;11.52;8.00;;;;;;;22.06;35.35;94735.66;5029300;28;20026;-73
2021/03/13 02:20:00;;;;;;;12.02;8.68;;;;;;;22.06;35.44;94730.22;5029781;28;20120;-73
2021/03/13 02:22:26;;;;;;;11.55;8.10;;;;;;;22.07;35.50;94737.13;5029969;28;20043;-75
2021/03/13 02:25:05;;;;;;;12.10;8.52;;;;;;;22.06;35.54;94741.09;5027189;28;20355;-73
2021/03/13 02:27:40;;;;;;;11.15;7.97;;;;;;;22.05;35.71;94728.72;5030735;28;20116;-73
2021/03/13 02:30:17;;;;;;;12.30;8.63;;;;;;;22.04;35.52;94721.81;5015516;28;20037;-73
2021/03/13 02:33:02;;;;;;;12.23;8.73;;;;;;;22.05;35.53;94728.00;5030637;28;20116;-74
2021/03/13 02:35:49;;;;;;;12.65;8.10;;;;;;;22.00;35.58;94721.38;5031637;28;20025;-74
2021/03/13 02:38:19;;;;;;;11.63;7.88;;;;;;;22.04;35.47;94716.38;5014581;28;20029;-74
2021/03/13 02:40:46;;;;;;;12.73;8.57;;;;;;;22.01;35.66;94722.81;5031965;28;20017;-75
2021/03/13 02:43:11;;;;;;;12.05;8.30;;;;;;;22.01;35.44;94722.81;5031468;28;20033;-75
2021/03/13 02:45:38;;;;;;;12.20;8.35;;;;;;;22.00;35.61;94720.63;5030047;28;20037;-75
2021/03/13 02:48:08;;;;;;;12.40;8.27;;;;;;;21.99;35.59;94719.88;5046632;28;20029;-74
2021/03/13 02:50:34;;;;;;;11.75;7.78;;;;;;;21.82;35.19;94682.47;5046942;28;20024;-75
2021/03/13 02:52:59;;;;;;;12.00;8.65;;;;;;;21.96;35.59;94699.16;5052250;28;20034;-74
2021/03/13 02:55:25;;;;;;;12.73;8.35;;;;;;;21.98;35.49;94702.09;5029999;28;20049;-74
2021/03/13 02:57:52;;;;;;;12.48;8.55;;;;;;;21.96;35.63;94710.03;5027406;28;20030;-74
2021/03/13 03:00:19;;;;;;;11.55;8.48;;;;;;;21.94;35.70;94701.66;5031606;28;20025;-75
2021/03/13 03:02:47;;;;;;;11.85;8.25;;;;;;;21.94;35.58;94704.38;5047045;28;20032;-73
2021/03/13 03:05:17;;;;;;;11.40;8.43;;;;;;;21.95;35.62;94708.53;5030174;28;20487;-75
2021/03/13 03:07:44;;;;;;;12.50;8.68;;;;;;;21.94;35.72;94700.88;5030478;28;20079;-75
2021/03/13 03:10:09;;;;;;;13.38;9.05;;;;;;;21.80;35.63;94674.09;5047266;28;20033;-74
2021/03/13 03:12:35;;;;;;;12.25;8.35;;;;;;;21.92;35.56;94697.94;5029665;28;20152;-73
2021/03/13 03:15:00;;;;;;;13.15;8.43;;;;;;;21.91;35.68;94701.19;5046093;28;20055;-74
2021/03/13 03:17:26;;;;;;;13.05;8.32;;;;;;;21.86;35.57;94694.53;5031002;28;20029;-74
2021/03/13 03:19:52;;;;;;;13.38;8.85;;;;;;;21.92;35.69;94705.38;5046332;28;20033;-73
2021/03/13 03:22:18;;;;;;;11.95;8.05;;;;;;;21.76;35.02;94679.06;5030301;28;20091;-73
2021/03/13 03:24:43;;;;;;;13.32;8.68;;;;;;;21.91;35.58;94706.63;5029668;28;20498;-75
2021/03/13 03:27:09;;;;;;;12.15;8.65;;;;;;;21.91;35.81;94701.19;5030801;28;20508;-74
2021/03/13 03:29:34;;;;;;;12.07;8.23;;;;;;;21.89;35.72;94698.97;5030480;28;20410;-73
2021/03/13 03:32:00;;;;;;;11.63;9.10;;;;;;;21.89;35.56;94700.97;5030835;28;20029;-74
2021/03/13 03:34:25;;;;;;;12.20;8.40;;;;;;;21.88;35.59;94702.19;5030478;28;20033;-74
2021/03/13 03:36:52;;;;;;;11.95;8.38;;;;;;;21.89;35.60;94704.41;5030878;28;20029;-74
2021/03/13 03:39:18;;;;;;;11.93;8.52;;;;;;;21.89;35.73;94719.97;5030871;28;20029;-73
2021/03/13 03:41:44;;;;;;;12.13;8.32;;;;;;;21.86;35.74;94710.13;5030865;28;20026;-75
2021/03/13 03:44:16;;;;;;;14.23;8.90;;;;;;;21.80;35.86;94709.44;5030351;28;20114;-73
2021/03/13 03:46:41;;;;;;;13.02;8.70;;;;;;;21.84;35.76;94723.47;5012548;28;20021;-74
2021/03/13 03:49:07;;;;;;;12.32;9.05;;;;;;;21.85;35.74;94719.50;5029599;28;20025;-74
2021/03/13 03:51:33;;;;;;;12.30;8.45;;;;;;;21.90;35.73;94716.00;5029628;28;20029;-74
2021/03/13 03:53:58;;;;;;;11.52;8.35;;;;;;;21.93;35.70;94719.19;5029000;28;20544;-73
2021/03/13 03:56:24;;;;;;;13.60;8.77;;;;;;;21.98;35.71;94718.41;5045068;28;20041;-75
2021/03/13 03:58:49;;;;;;;11.55;8.20;;;;;;;21.90;35.85;94700.44;5045875;28;20021;-73
2021/03/13 04:01:15;;;;;;;12.60;8.65;;;;;;;22.02;35.57;94708.00;5029415;28;20057;-75
2021/03/13 04:03:57;;;;;;;11.57;8.00;;;;;;;22.07;35.55;94709.91;5030835;28;20026;-75
2021/03/13 04:06:22;;;;;;;12.23;8.55;;;;;;;22.08;35.55;94708.69;5029165;28;20542;-74
2021/03/13 04:08:50;;;;;;;12.00;8.27;;;;;;;22.04;35.36;94710.94;5030544;28;20080;-75
2021/03/13 04:11:19;;;;;;;11.77;8.05;;;;;;;22.15;35.53;94721.75;5028675;28;20061;-75
2021/03/13 04:13:44;;;;;;;12.55;8.57;;;;;;;22.04;34.90;94710.94;5014700;28;20034;-76
2021/03/13 04:16:13;;;;;;;10.68;7.68;;;;;;;22.17;35.41;94724.69;5011612;28;20037;-83
2021/03/13 04:18:38;;;;;;;11.32;7.82;;;;;;;22.21;35.36;94730.63;5029070;28;20041;-82
2021/03/13 04:21:04;;;;;;;10.68;8.43;;;;;;;22.25;35.36;94725.63;5013037;28;20026;-82
2021/03/13 04:23:29;;;;;;;11.20;8.00;;;;;;;22.29;35.37;94726.09;5011910;28;20033;-83
2021/03/13 04:25:55;;;;;;;11.70;8.10;;;;;;;22.31;35.25;94720.84;5028754;28;20137;-77
2021/03/13 04:28:21;;;;;;;11.98;7.90;;;;;;;22.32;35.26;94719.63;5027530;28;20025;-78
2021/03/13 04:30:47;;;;;;;11.32;8.13;;;;;;;22.34;35.47;94722.56;5051820;28;20020;-82
2021/03/13 04:33:13;;;;;;;11.20;7.88;;;;;;;22.24;35.03;94696.22;5052611;28;20056;-80
2021/03/13 04:35:38;;;;;;;12.13;7.95;;;;;;;22.13;35.23;94686.13;5034908;28;20187;-77
2021/03/13 04:38:03;;;;;;;10.82;7.93;;;;;;;22.38;35.29;94723.03;5030421;28;20025;-77
2021/03/13 04:40:29;;;;;;;11.80;8.25;;;;;;;22.39;35.16;94716.34;5029176;28;20025;-77
2021/03/13 04:42:54;;;;;;;13.15;9.07;;;;;;;22.41;35.33;94716.56;5029879;28;20020;-76
2021/03/13 04:45:20;;;;;;;11.80;7.97;;;;;;;22.42;35.14;94707.16;5028504;28;20029;-77
2021/03/13 04:47:47;;;;;;;13.65;9.45;;;;;;;22.44;35.08;94715.56;5028473;28;20052;-76
2021/03/13 04:50:13;;;;;;;13.30;8.38;;;;;;;22.44;35.13;94718.28;5028503;28;20079;-73
2021/03/13 04:52:39;;;;;;;12.38;8.40;;;;;;;22.46;34.95;94718.50;5030391;28;20880;-78
2021/03/13 04:55:05;;;;;;;14.75;8.88;;;;;;;22.47;35.21;94714.53;5029854;28;20033;-78
2021/03/13 04:57:31;;;;;;;13.52;8.25;;;;;;;22.48;34.98;94714.03;5029787;28;20502;-77
2021/03/13 04:59:56;;;;;;;10.75;7.88;;;;;;;22.51;35.14;94710.28;5030123;28;20025;-79
2021/03/13 05:02:21;;;;;;;12.85;8.20;;;;;;;22.50;35.17;94691.75;5030500;28;20060;-77
2021/03/13 05:04:47;;;;;;;12.05;8.23;;;;;;;22.37;35.03;94683.47;5030542;28;20021;-76
2021/03/13 05:07:12;;;;;;;13.02;7.93;;;;;;;22.56;35.01;94706.03;5041835;28;20039;-77
2021/03/13 05:09:38;;;;;;;12.30;8.43;;;;;;;22.57;34.93;94707.47;5050959;28;20032;-79
2021/03/13 05:12:04;;;;;;;11.55;7.82;;;;;;;22.58;34.95;94714.41;5043772;28;20046;-79
2021/03/13 05:14:29;;;;;;;11.65;8.80;;;;;;;22.59;35.19;94716.63;5029672;28;20033;-76
2021/03/13 05:16:54;;;;;;;11.10;7.68;;;;;;;22.62;35.23;94717.59;5029328;28;20040;-78
2021/03/13 05:19:20;;;;;;;13.77;9.40;;;;;;;22.51;34.89;94721.16;5029884;28;20033;-78
2021/03/13 05:21:45;;;;;;;11.80;8.52;;;;;;;22.62;34.87;94731.19;5030123;28;20120;-77
2021/03/13 05:24:11;;;;;;;13.00;9.63;;;;;;;22.63;34.83;94738.09;5045536;28;20449;-73
2021/03/13 05:26:37;;;;;;;11.18;8.50;;;;;;;22.49;34.73;94722.91;5027828;28;20025;-76
2021/03/13 05:29:03;;;;;;;13.23;9.48;;;;;;;22.65;35.15;94746.50;5036857;28;20021;-80
2021/03/13 05:31:28;;;;;;;11.88;8.77;;;;;;;22.67;35.12;94747.47;5023866;28;20029;-76
2021/03/13 05:33:54;;;;;;;13.15;9.05;;;;;;;22.59;34.99;94738.41;5024596;28;20030;-76
2021/03/13 05:36:19;;;;;;;11.07;8.18;;;;;;;22.66;34.96;94745.25;5045151;28;20021;-82
2021/03/13 05:38:45;;;;;;;12.80;8.35;;;;;;;22.66;35.15;94745.25;5029029;28;20025;-77
2021/03/13 05:41:10;;;;;;;12.48;8.70;;;;;;;22.61;35.02;94740.59;5027263;28;20026;-77
2021/03/13 05:43:36;;;;;;;13.15;9.38;;;;;;;22.73;35.08;94758.28;5052890;28;20021;-74
2021/03/13 05:46:02;;;;;;;11.85;8.50;;;;;;;22.73;35.07;94747.41;5036813;28;20022;-74
2021/03/13 05:48:27;;;;;;;27.33;18.45;;;;;;;22.28;31.51;94757.25;5037435;28;20021;-72
2021/03/13 05:50:53;;;;;;;18.13;12.50;;;;;;;22.14;33.27;94725.69;5028399;28;20025;-74
2021/03/13 05:53:18;;;;;;;15.40;11.02;;;;;;;22.26;34.36;94739.97;5038946;28;20033;-72
2021/03/13 05:55:44;;;;;;;15.43;10.20;;;;;;;22.40;34.71;94747.72;5025082;28;20036;-74
2021/03/13 05:58:09;;;;;;;13.15;9.23;;;;;;;22.50;34.98;94762.50;5024446;28;20018;-74
2021/03/13 06:00:36;;;;;;;12.57;9.45;;;;;;;22.55;35.05;94756.25;5024221;28;20468;-71
2021/03/13 06:03:01;;;;;;;14.90;9.73;;;;;;;22.60;34.84;94750.00;5032203;28;20041;-73
2021/03/13 06:05:27;;;;;;;16.13;10.23;;;;;;;22.66;34.81;94750.69;5030616;28;20037;-73
2021/03/13 06:07:54;;;;;;;13.85;9.70;;;;;;;22.72;34.87;94752.13;5045989;28;20413;-75
2021/03/13 06:10:19;;;;;;;13.15;9.00;;;;;;;22.81;34.83;94759.19;5024674;28;20029;-78
2021/03/13 06:12:45;;;;;;;13.05;9.35;;;;;;;22.83;34.71;94754.00;5030435;28;20028;-74
2021/03/13 06:15:10;;;;;;;13.35;9.38;;;;;;;22.95;34.90;94756.84;5026335;28;20013;-75
2021/03/13 06:17:58;;;;;;;13.00;9.68;;;;;;;23.07;34.27;94754.72;5026135;28;20052;-77
2021/03/13 06:20:37;;;;;;;14.20;9.10;;;;;;;23.18;34.46;94768.22;5028970;28;20124;-75
2021/03/13 06:23:08;;;;;;;12.02;8.50;;;;;;;23.30;34.21;94777.72;4983914;28;20036;-71
2021/03/13 06:25:39;;;;;;;12.63;8.95;;;;;;;23.39;34.28;94780.81;5046957;28;20484;-74
2021/03/13 06:28:10;;;;;;;14.52;9.70;;;;;;;23.50;33.95;94775.25;5039149;28;20048;-70
2021/03/13 06:30:40;;;;;;;17.70;12.18;;;;;;;23.56;33.37;94779.34;5037641;28;20028;-75
2021/03/13 06:33:18;;;;;;;13.93;9.70;;;;;;;23.69;33.26;94784.16;5030022;28;20033;-77
2021/03/13 06:35:43;;;;;;;13.07;9.07;;;;;;;23.79;33.51;94774.38;5026421;28;20418;-73
2021/03/13 06:38:20;;;;;;;13.52;9.55;;;;;;;23.91;33.28;94779.88;5039456;28;20025;-74
2021/03/13 06:40:46;;;;;;;12.02;8.27;;;;;;;23.98;33.60;94787.47;5028789;28;20481;-72
2021/03/13 06:43:20;;;;;;;14.65;9.55;;;;;;;24.12;33.08;94788.97;5031061;28;20036;-72
2021/03/13 06:46:06;;;;;;;12.63;9.27;;;;;;;24.22;33.14;94794.81;5028572;28;20038;-75
2021/03/13 06:48:50;;;;;;;12.18;9.23;;;;;;;24.26;32.66;94790.50;5046681;28;20025;-76
2021/03/13 06:51:32;;;;;;;17.13;9.88;;;;;;;24.37;32.91;94796.53;5027653;28;20452;-74
2021/03/13 06:54:07;;;;;;;12.45;9.07;;;;;;;24.53;32.71;94803.72;5022015;28;20038;-81
2021/03/13 06:56:37;;;;;;;15.40;9.93;;;;;;;24.63;32.46;94798.59;5028183;28;20043;-77
2021/03/13 06:59:23;;;;;;;12.10;8.65;;;;;;;24.72;32.13;94800.94;5028641;28;20530;-76
2021/03/13 07:02:08;;;;;;;12.35;8.93;;;;;;;24.81;32.14;94803.97;5015666;28;20057;-75
2021/03/13 07:04:37;;;;;;;14.38;9.50;;;;;;;24.87;32.14;94799.16;5026612;28;20030;-75
2021/03/13 07:07:04;;;;;;;12.95;9.55;;;;;;;24.90;31.73;94787.94;5029757;28;20033;-75
2021/03/13 07:09:43;;;;;;;12.90;9.13;;;;;;;25.03;31.91;94798.88;5025459;28;20037;-76
2021/03/13 07:12:41;;;;;;;12.68;8.90;;;;;;;25.08;31.53;94803.53;5031150;28;20434;-77
2021/03/13 07:15:23;;;;;;;14.68;9.13;;;;;;;25.18;31.82;94812.75;5028278;28;20117;-78
2021/03/13 07:17:56;;;;;;;12.77;9.27;;;;;;;25.22;31.75;94805.00;5034988;28;20017;-75
2021/03/13 07:20:29;;;;;;;11.77;8.93;;;;;;;25.35;31.37;94810.44;5036496;28;20477;-73
2021/03/13 07:22:55;;;;;;;12.25;8.90;;;;;;;25.38;31.31;94814.84;5037841;28;20031;-73
2021/03/13 07:25:22;;;;;;;12.27;8.82;;;;;;;25.43;31.39;94817.47;5035179;28;20028;-73
2021/03/13 07:27:52;;;;;;;13.27;9.65;;;;;;;25.47;31.37;94800.75;5045406;28;20104;-74
2021/03/13 07:30:18;;;;;;;12.70;9.07;;;;;;;25.51;30.71;94795.72;5041435;28;20412;-73
2021/03/13 07:32:49;;;;;;;13.23;9.20;;;;;;;25.58;30.96;94795.06;5047585;28;20029;-74
2021/03/13 07:35:15;;;;;;;12.48;9.32;;;;;;;25.53;30.63;94787.69;5039506;28;20522;-74
2021/03/13 07:37:41;;;;;;;12.73;9.27;;;;;;;25.72;30.74;94793.81;5040158;28;20039;-74
2021/03/13 07:40:11;;;;;;;13.05;9.20;;;;;;;25.77;30.85;94807.38;5040935;28;20111;-73
2021/03/13 07:42:37;;;;;;;12.38;9.18;;;;;;;25.76;30.65;94808.63;5039316;28;20079;-73
2021/03/13 07:45:02;;;;;;;12.43;8.90;;;;;;;25.83;30.95;94805.97;5039736;28;20060;-73
2021/03/13 07:47:28;;;;;;;13.30;8.52;;;;;;;25.88;30.76;94796.91;5037541;28;20033;-74
2021/03/13 07:49:53;;;;;;;12.70;9.48;;;;;;;25.92;31.25;94802.78;5032486;28;20461;-73
2021/03/13 07:52:19;;;;;;;12.32;9.00;;;;;;;25.90;30.98;94783.44;5029982;28;20038;-73
2021/03/13 07:54:49;;;;;;;11.90;9.07;;;;;;;25.82;31.46;94771.66;5043716;28;20025;-77
2021/03/13 07:57:14;;;;;;;14.60;9.75;;;;;;;26.10;31.61;94806.63;5028248;28;20033;-74
2021/03/13 07:59:46;;;;;;;14.15;9.88;;;;;;;26.15;32.16;94801.03;5028812;28;20029;-74
2021/03/13 08:02:36;;;;;;;12.57;9.00;;;;;;;26.19;32.48;94801.44;5032470;28;20026;-73
2021/03/13 08:05:17;;;;;;;14.00;9.93;;;;;;;26.26;32.26;94798.03;5020702;28;20414;-72
2021/03/13 08:08:03;;;;;;;13.38;9.75;;;;;;;26.11;31.97;94792.41;5025731;28;20418;-77
2021/03/13 08:10:52;;;;;;;13.43;9.82;;;;;;;26.09;31.97;94778.53;5026480;28;20033;-76
2021/03/13 08:13:27;;;;;;;12.37;8.67;;;;;;;26.28;32.32;94806.50;5028268;28;20049;-74
2021/03/13 08:16:08;;;;;;;13.45;9.60;;;;;;;26.38;32.11;94807.47;5025291;28;20299;-73
2021/03/13 08:19:00;;;;;;;12.55;9.23;;;;;;;26.38;32.17;94810.22;5028936;28;20036;-73
2021/03/13 08:21:25;;;;;;;12.00;9.25;;;;;;;26.41;32.05;94809.16;5026097;28;20095;-75
2021/03/13 08:23:55;;;;;;;15.05;9.75;;;;;;;26.47;31.92;94817.97;5028154;28;20033;-74
2021/03/13 08:26:21;;;;;;;20.90;9.05;;;;;;;26.47;31.87;94812.50;5023739;28;20521;-75
2021/03/13 08:28:50;;;;;;;12.57;9.07;;;;;;;26.49;31.86;94809.97;5027383;28;20056;-75
2021/03/13 08:31:24;;;;;;;13.98;9.23;;;;;;;26.54;31.86;94811.84;5028629;28;20413;-75
2021/03/13 08:33:50;;;;;;;16.58;10.25;;;;;;;26.48;31.78;94803.00;5030555;28;20057;-73
2021/03/13 08:36:17;;;;;;;12.43;8.90;;;;;;;26.57;31.93;94810.75;5018613;28;20026;-72
2021/03/13 08:39:03;;;;;;;13.23;9.23;;;;;;;26.58;31.73;94823.19;5051637;28;20025;-74
2021/03/13 08:41:44;;;;;;;14.13;9.00;;;;;;;26.63;32.02;94808.63;5036891;28;20024;-71
2021/03/13 08:44:15;;;;;;;12.82;9.18;;;;;;;26.63;32.34;94819.59;5044343;28;20056;-74
2021/03/13 08:46:59;;;;;;;15.38;9.45;;;;;;;26.66;32.37;94819.22;5022234;28;20029;-74
2021/03/13 08:49:26;;;;;;;13.57;9.38;;;;;;;26.67;32.79;94825.47;5037792;28;20024;-71
2021/03/13 08:52:09;;;;;;;23.00;13.48;;;;;;;26.55;32.12;94824.25;5029159;28;20429;-76
2021/03/13 08:54:41;;;;;;;17.77;10.82;;;;;;;26.56;32.10;94820.25;5028315;28;20030;-75
2021/03/13 08:57:09;;;;;;;14.73;10.02;;;;;;;26.66;32.30;94827.47;5030013;28;20056;-76
2021/03/13 08:59:35;;;;;;;14.48;9.52;;;;;;;26.71;32.30;94820.38;5032259;28;20507;-76
2021/03/13 09:02:17;;;;;;;14.27;9.68;;;;;;;26.70;32.23;94829.88;5038570;28;20040;-74
2021/03/13 09:04:52;;;;;;;15.15;10.02;;;;;;;26.72;32.17;94835.53;5038610;28;20017;-71
2021/03/13 09:07:21;;;;;;;19.77;12.18;;;;;;;26.66;30.79;94834.94;5034413;28;20117;-74
2021/03/13 09:09:47;;;;;;;14.45;10.38;;;;;;;26.75;31.55;94831.75;5037737;28;20498;-74
2021/03/13 09:12:16;;;;;;;15.88;10.00;;;;;;;26.62;31.76;94818.09;5042080;28;20047;-73
2021/03/13 09:14:42;;;;;;;18.40;13.13;;;;;;;26.74;30.03;94830.25;5031384;28;20032;-80
2021/03/13 09:17:14;;;;;;;14.93;10.10;;;;;;;26.71;31.64;94832.09;5037043;28;20091;-74
2021/03/13 09:19:40;;;;;;;15.43;9.35;;;;;;;26.79;31.57;94839.06;5045748;28;20104;-75
2021/03/13 09:22:08;;;;;;;14.63;9.80;;;;;;;26.80;31.88;94826.84;5028311;28;20029;-75
2021/03/13 09:24:34;;;;;;;13.30;9.38;;;;;;;26.76;31.86;94829.19;5027248;28;20037;-74
2021/03/13 09:27:00;;;;;;;12.05;9.30;;;;;;;26.81;31.60;94841.28;5015700;28;20483;-72
2021/03/13 09:29:33;;;;;;;14.20;9.73;;;;;;;26.85;31.54;94847.91;5024701;28;20038;-71
2021/03/13 09:32:09;;;;;;;12.68;9.20;;;;;;;26.89;31.56;94842.84;5032138;28;20029;-74
2021/03/13 09:34:38;;;;;;;13.57;8.98;;;;;;;26.89;31.42;94848.34;5037460;28;20021;-73
2021/03/13 09:37:19;;;;;;;17.70;10.73;;;;;;;26.77;31.31;94849.84;5048824;28;20132;-71
2021/03/13 09:39:48;;;;;;;14.25;9.70;;;;;;;26.88;31.06;94846.81;5035504;28;20524;-71
2021/03/13 09:42:17;;;;;;;13.45;9.52;;;;;;;26.90;31.41;94844.31;5047155;28;20029;-71
2021/03/13 09:44:47;;;;;;;14.43;10.07;;;;;;;26.91;31.68;94840.31;5036143;28;20029;-72
2021/03/13 09:47:16;;;;;;;14.88;9.63;;;;;;;26.80;31.98;94824.13;5029813;28;20414;-74
2021/03/13 09:49:48;;;;;;;14.23;9.40;;;;;;;26.88;32.17;94840.63;5037451;28;20025;-78
2021/03/13 09:52:13;;;;;;;12.65;9.27;;;;;;;26.96;32.55;94847.63;5040233;28;20029;-75
2021/03/13 09:54:39;;;;;;;13.02;9.80;;;;;;;26.88;32.60;94835.88;5039279;28;20028;-75
2021/03/13 09:57:12;;;;;;;20.85;9.15;;;;;;;26.94;32.81;94844.72;5037992;28;20079;-74
2021/03/13 09:59:38;;;;;;;16.00;10.13;;;;;;;26.87;32.83;94834.38;5025790;28;20032;-77
2021/03/13 10:02:04;;;;;;;13.25;9.40;;;;;;;26.87;32.72;94822.69;5036232;28;20018;-75
2021/03/13 10:04:30;;;;;;;12.20;8.85;;;;;;;26.96;32.91;94833.94;5029996;28;20049;-77
2021/03/13 10:06:56;;;;;;;14.35;9.30;;;;;;;26.78;33.25;94812.22;5042907;28;20494;-77
2021/03/13 10:09:21;;;;;;;14.18;9.20;;;;;;;26.93;33.41;94835.00;5022035;28;20037;-77
2021/03/13 10:11:46;;;;;;;12.38;8.88;;;;;;;26.92;33.64;94830.81;5047193;28;20056;-79
2021/03/13 10:14:19;;;;;;;13.32;9.10;;;;;;;26.86;33.57;94827.44;5038043;28;20040;-80
2021/03/13 10:16:45;;;;;;;13.75;9.13;;;;;;;26.73;33.72;94796.66;5031249;28;20112;-88
2021/03/13 10:19:34;;;;;;;13.32;9.40;;;;;;;26.99;33.73;94830.13;5043694;28;20034;-87
2021/03/13 10:22:17;;;;;;;15.02;9.70;;;;;;;26.90;33.65;94833.34;5031999;28;20024;-72
2021/03/13 10:24:47;;;;;;;13.85;9.13;;;;;;;27.00;33.77;94837.06;5040898;28;20033;-71
2021/03/13 10:27:27;;;;;;;16.40;9.55;;;;;;;27.01;33.74;94844.03;5035448;28;20509;-71
2021/03/13 10:29:57;;;;;;;13.75;9.07;;;;;;;26.93;33.87;94843.22;5028136;28;20037;-74
2021/03/13 10:32:27;;;;;;;;;;;;;;;27.06;34.22;94848.63;5028410;28;20024;-74
2021/03/13 10:35:05;;;;;;;12.95;9.45;;;;;;;27.10;34.02;94851.78;5012273;28;19929;-75
2021/03/13 10:37:40;;;;;;;13.65;8.90;;;;;;;27.05;34.12;94860.88;5019318;28;20036;-75
2021/03/13 10:40:06;;;;;;;15.07;9.43;;;;;;;26.98;34.18;94834.16;5021188;28;20029;-75
2021/03/13 10:42:34;;;;;;;14.23;9.07;;;;;;;27.07;34.51;94847.38;5019234;28;20182;-75
2021/03/13 10:45:17;;;;;;;13.80;9.23;;;;;;;27.05;34.16;94844.41;5024028;28;20025;-76
2021/03/13 10:47:43;;;;;;;13.60;8.82;;;;;;;27.11;34.57;94850.50;5027669;28;20030;-76
2021/03/13 10:50:09;;;;;;;13.13;8.93;;;;;;;27.14;33.91;94832.97;5028389;28;20075;-77
2021/03/13 10:52:35;;;;;;;11.75;8.85;;;;;;;27.19;34.08;94832.09;5031400;28;20457;-74
2021/03/13 10:55:01;;;;;;;12.95;9.02;;;;;;;27.17;35.07;94828.41;5033080;28;20047;-76
2021/03/13 10:57:26;;;;;;;13.65;9.63;;;;;;;27.22;34.68;94820.06;5032981;28;20029;-75
2021/03/13 10:59:52;;;;;;;13.52;9.60;;;;;;;27.17;34.45;94807.22;5027754;28;20033;-76
2021/03/13 11:02:17;;;;;;;16.45;10.13;;;;;;;27.27;34.93;94828.13;5031778;28;20032;-77
2021/03/13 11:04:42;;;;;;;15.60;8.90;;;;;;;27.27;35.07;94824.66;5030446;28;20410;-76
2021/03/13 11:07:08;;;;;;;14.77;9.25;;;;;;;27.27;34.70;94832.88;5027627;28;20576;-78
2021/03/13 11:09:34;;;;;;;14.70;9.32;;;;;;;27.26;34.85;94825.91;5035200;28;20044;-76
2021/03/13 11:11:59;;;;;;;15.18;9.13;;;;;;;27.24;35.04;94828.47;5037389;28;20044;-79
2021/03/13 11:14:25;;;;;;;15.38;9.68;;;;;;;27.14;35.02;94813.78;5031785;28;20036;-77
2021/03/13 11:16:51;;;;;;;16.08;9.65;;;;;;;27.14;34.90;94813.78;5035079;28;20554;-78
2021/03/13 11:19:17;;;;;;;13.30;8.60;;;;;;;27.29;34.70;94838.56;5046514;28;20033;-77
2021/03/13 11:21:42;;;;;;;14.30;9.30;;;;;;;27.28;34.78;94839.84;5031146;28;20033;-81
2021/03/13 11:24:08;;;;;;;14.15;8.80;;;;;;;27.28;34.63;94829.59;5032193;28;20044;-77
2021/03/13 11:26:34;;;;;;;12.77;8.38;;;;;;;27.28;34.76;94824.13;5031456;28;20028;-79
2021/03/13 11:28:59;;;;;;;14.43;8.85;;;;;;;27.25;34.54;94808.00;5031841;28;20127;-80
2021/03/13 11:31:25;;;;;;;12.63;9.25;;;;;;;27.24;34.35;94806.53;5025043;28;20041;-78
2021/03/13 11:33:50;;;;;;;13.80;9.13;;;;;;;27.26;34.59;94795.75;5041915;28;20047;-78